<?xml version="1.0" encoding="UTF-8" standalone="no" ?>
<gpx xmlns="http://www.topografix.com/GPX/1/1" xmlns:xsi="http://www.w3.org/2001/XMLSchema-instance" xsi:schemaLocation="http://www.topografix.com/GPX/1/1 http://www.topografix.com/GPX/1/1/gpx.xsd" version="1.1" creator="VisuGPX - https://www.visugpx.com">
  <metadata>
    <name>De Mont-de-Marsan à Hagetmau</name>
    <desc><![CDATA[LE CHEMIN VERS COMPOSTELLE, LA VOIE DE VEZELAY d'EGUZON A ST JEAN-PIED-DE-PORT.]]></desc>
  </metadata>
  <trk>
    <name><![CDATA[9563666-Mont-de-Marsan - Hagetmau]]></name>
    <trkseg>
      <trkpt lat="43.89301" lon="-0.501">
        <ele>45</ele>
        <time>2019-02-11T16:19:33Z</time>
      </trkpt>
      <trkpt lat="43.89273" lon="-0.50096">
        <ele>45</ele>
        <time>2019-02-11T16:20:33Z</time>
      </trkpt>
      <trkpt lat="43.89237" lon="-0.5008">
        <ele>44</ele>
        <time>2019-02-11T16:21:33Z</time>
      </trkpt>
      <trkpt lat="43.89218" lon="-0.50082">
        <ele>44</ele>
        <time>2019-02-11T16:22:33Z</time>
      </trkpt>
      <trkpt lat="43.89204" lon="-0.50129">
        <ele>43</ele>
        <time>2019-02-11T16:23:33Z</time>
      </trkpt>
      <trkpt lat="43.89195" lon="-0.5014">
        <ele>42</ele>
        <time>2019-02-11T16:24:33Z</time>
      </trkpt>
      <trkpt lat="43.89181" lon="-0.50175">
        <ele>40</ele>
        <time>2019-02-11T16:25:33Z</time>
      </trkpt>
      <trkpt lat="43.89149" lon="-0.50157">
        <ele>41</ele>
        <time>2019-02-11T16:26:33Z</time>
      </trkpt>
      <trkpt lat="43.89117" lon="-0.50135">
        <ele>44</ele>
        <time>2019-02-11T16:27:33Z</time>
      </trkpt>
      <trkpt lat="43.89105" lon="-0.50127">
        <ele>45</ele>
        <time>2019-02-11T16:28:33Z</time>
      </trkpt>
      <trkpt lat="43.89075" lon="-0.50123">
        <ele>47</ele>
        <time>2019-02-11T16:29:33Z</time>
      </trkpt>
      <trkpt lat="43.89025" lon="-0.50121">
        <ele>48</ele>
        <time>2019-02-11T16:30:33Z</time>
      </trkpt>
      <trkpt lat="43.88976" lon="-0.50118">
        <ele>49</ele>
        <time>2019-02-11T16:31:33Z</time>
      </trkpt>
      <trkpt lat="43.88946" lon="-0.50108">
        <ele>49</ele>
        <time>2019-02-11T16:32:33Z</time>
      </trkpt>
      <trkpt lat="43.88894" lon="-0.50076">
        <ele>50</ele>
        <time>2019-02-11T16:33:33Z</time>
      </trkpt>
      <trkpt lat="43.88837" lon="-0.5004">
        <ele>51</ele>
        <time>2019-02-11T16:34:33Z</time>
      </trkpt>
      <trkpt lat="43.88802" lon="-0.50032">
        <ele>52</ele>
        <time>2019-02-11T16:35:33Z</time>
      </trkpt>
      <trkpt lat="43.8875" lon="-0.50016">
        <ele>53</ele>
        <time>2019-02-11T16:36:33Z</time>
      </trkpt>
      <trkpt lat="43.88736" lon="-0.50008">
        <ele>54</ele>
        <time>2019-02-11T16:37:33Z</time>
      </trkpt>
      <trkpt lat="43.88723" lon="-0.50006">
        <ele>55</ele>
        <time>2019-02-11T16:38:33Z</time>
      </trkpt>
      <trkpt lat="43.88716" lon="-0.50006">
        <ele>55</ele>
        <time>2019-02-11T16:39:33Z</time>
      </trkpt>
      <trkpt lat="43.88701" lon="-0.50003">
        <ele>56</ele>
        <time>2019-02-11T16:40:33Z</time>
      </trkpt>
      <trkpt lat="43.88696" lon="-0.49981">
        <ele>56</ele>
        <time>2019-02-11T16:41:33Z</time>
      </trkpt>
      <trkpt lat="43.88642" lon="-0.49953">
        <ele>60</ele>
        <time>2019-02-11T16:42:33Z</time>
      </trkpt>
      <trkpt lat="43.88542" lon="-0.49885">
        <ele>66</ele>
        <time>2019-02-11T16:43:33Z</time>
      </trkpt>
      <trkpt lat="43.88432" lon="-0.49829">
        <ele>71</ele>
        <time>2019-02-11T16:44:33Z</time>
      </trkpt>
      <trkpt lat="43.88268" lon="-0.49731">
        <ele>74</ele>
        <time>2019-02-11T16:45:33Z</time>
      </trkpt>
      <trkpt lat="43.88152" lon="-0.49661">
        <ele>77</ele>
        <time>2019-02-11T16:46:33Z</time>
      </trkpt>
      <trkpt lat="43.87816" lon="-0.49477">
        <ele>71</ele>
        <time>2019-02-11T16:47:33Z</time>
      </trkpt>
      <trkpt lat="43.87294" lon="-0.49169">
        <ele>69</ele>
        <time>2019-02-11T16:48:33Z</time>
      </trkpt>
      <trkpt lat="43.87109" lon="-0.49057">
        <ele>78</ele>
        <time>2019-02-11T16:49:33Z</time>
      </trkpt>
      <trkpt lat="43.86939" lon="-0.48972">
        <ele>78</ele>
        <time>2019-02-11T16:50:33Z</time>
      </trkpt>
      <trkpt lat="43.86896" lon="-0.48949">
        <ele>79</ele>
        <time>2019-02-11T16:51:33Z</time>
      </trkpt>
      <trkpt lat="43.8687" lon="-0.48941">
        <ele>78</ele>
        <time>2019-02-11T16:52:33Z</time>
      </trkpt>
      <trkpt lat="43.86875" lon="-0.49028">
        <ele>76</ele>
        <time>2019-02-11T16:53:33Z</time>
      </trkpt>
      <trkpt lat="43.86876" lon="-0.49115">
        <ele>79</ele>
        <time>2019-02-11T16:54:33Z</time>
      </trkpt>
      <trkpt lat="43.86813" lon="-0.49138">
        <ele>80</ele>
        <time>2019-02-11T16:55:33Z</time>
      </trkpt>
      <trkpt lat="43.86725" lon="-0.49156">
        <ele>84</ele>
        <time>2019-02-11T16:56:33Z</time>
      </trkpt>
      <trkpt lat="43.86664" lon="-0.49154">
        <ele>85</ele>
        <time>2019-02-11T16:57:33Z</time>
      </trkpt>
      <trkpt lat="43.86632" lon="-0.49156">
        <ele>84</ele>
        <time>2019-02-11T16:58:33Z</time>
      </trkpt>
      <trkpt lat="43.86594" lon="-0.49156">
        <ele>83</ele>
        <time>2019-02-11T16:59:33Z</time>
      </trkpt>
      <trkpt lat="43.86569" lon="-0.49171">
        <ele>84</ele>
        <time>2019-02-11T17:00:33Z</time>
      </trkpt>
      <trkpt lat="43.86559" lon="-0.49203">
        <ele>87</ele>
        <time>2019-02-11T17:01:33Z</time>
      </trkpt>
      <trkpt lat="43.86446" lon="-0.49243">
        <ele>89</ele>
        <time>2019-02-11T17:02:33Z</time>
      </trkpt>
      <trkpt lat="43.86312" lon="-0.49295">
        <ele>91</ele>
        <time>2019-02-11T17:03:33Z</time>
      </trkpt>
      <trkpt lat="43.86236" lon="-0.49335">
        <ele>93</ele>
        <time>2019-02-11T17:04:33Z</time>
      </trkpt>
      <trkpt lat="43.86115" lon="-0.49376">
        <ele>93</ele>
        <time>2019-02-11T17:05:33Z</time>
      </trkpt>
      <trkpt lat="43.86053" lon="-0.49387">
        <ele>93</ele>
        <time>2019-02-11T17:06:33Z</time>
      </trkpt>
      <trkpt lat="43.86014" lon="-0.49454">
        <ele>93</ele>
        <time>2019-02-11T17:07:33Z</time>
      </trkpt>
      <trkpt lat="43.85986" lon="-0.49506">
        <ele>92</ele>
        <time>2019-02-11T17:08:33Z</time>
      </trkpt>
      <trkpt lat="43.85902" lon="-0.49535">
        <ele>92</ele>
        <time>2019-02-11T17:09:33Z</time>
      </trkpt>
      <trkpt lat="43.85854" lon="-0.49537">
        <ele>92</ele>
        <time>2019-02-11T17:10:33Z</time>
      </trkpt>
      <trkpt lat="43.858" lon="-0.49532">
        <ele>93</ele>
        <time>2019-02-11T17:11:33Z</time>
      </trkpt>
      <trkpt lat="43.85751" lon="-0.49551">
        <ele>95</ele>
        <time>2019-02-11T17:12:33Z</time>
      </trkpt>
      <trkpt lat="43.85695" lon="-0.49535">
        <ele>96</ele>
        <time>2019-02-11T17:13:33Z</time>
      </trkpt>
      <trkpt lat="43.85653" lon="-0.49528">
        <ele>96</ele>
        <time>2019-02-11T17:14:33Z</time>
      </trkpt>
      <trkpt lat="43.85604" lon="-0.49528">
        <ele>92</ele>
        <time>2019-02-11T17:15:33Z</time>
      </trkpt>
      <trkpt lat="43.85582" lon="-0.49519">
        <ele>90</ele>
        <time>2019-02-11T17:16:33Z</time>
      </trkpt>
      <trkpt lat="43.85531" lon="-0.49515">
        <ele>90</ele>
        <time>2019-02-11T17:17:33Z</time>
      </trkpt>
      <trkpt lat="43.85506" lon="-0.49494">
        <ele>90</ele>
        <time>2019-02-11T17:18:33Z</time>
      </trkpt>
      <trkpt lat="43.85432" lon="-0.49429">
        <ele>93</ele>
        <time>2019-02-11T17:19:33Z</time>
      </trkpt>
      <trkpt lat="43.85461" lon="-0.49573">
        <ele>96</ele>
        <time>2019-02-11T17:20:33Z</time>
      </trkpt>
      <trkpt lat="43.85502" lon="-0.49716">
        <ele>89</ele>
        <time>2019-02-11T17:21:33Z</time>
      </trkpt>
      <trkpt lat="43.85396" lon="-0.498">
        <ele>92</ele>
        <time>2019-02-11T17:22:33Z</time>
      </trkpt>
      <trkpt lat="43.85267" lon="-0.49836">
        <ele>92</ele>
        <time>2019-02-11T17:23:33Z</time>
      </trkpt>
      <trkpt lat="43.8521" lon="-0.49844">
        <ele>90</ele>
        <time>2019-02-11T17:24:33Z</time>
      </trkpt>
      <trkpt lat="43.85155" lon="-0.49851">
        <ele>91</ele>
        <time>2019-02-11T17:25:33Z</time>
      </trkpt>
      <trkpt lat="43.85123" lon="-0.4986">
        <ele>93</ele>
        <time>2019-02-11T17:26:33Z</time>
      </trkpt>
      <trkpt lat="43.85086" lon="-0.49887">
        <ele>95</ele>
        <time>2019-02-11T17:27:33Z</time>
      </trkpt>
      <trkpt lat="43.85055" lon="-0.49928">
        <ele>93</ele>
        <time>2019-02-11T17:28:33Z</time>
      </trkpt>
      <trkpt lat="43.84961" lon="-0.4997">
        <ele>95</ele>
        <time>2019-02-11T17:29:33Z</time>
      </trkpt>
      <trkpt lat="43.8491" lon="-0.50021">
        <ele>94</ele>
        <time>2019-02-11T17:30:33Z</time>
      </trkpt>
      <trkpt lat="43.84884" lon="-0.50046">
        <ele>91</ele>
        <time>2019-02-11T17:31:33Z</time>
      </trkpt>
      <trkpt lat="43.84841" lon="-0.50098">
        <ele>89</ele>
        <time>2019-02-11T17:32:33Z</time>
      </trkpt>
      <trkpt lat="43.84805" lon="-0.50122">
        <ele>88</ele>
        <time>2019-02-11T17:33:33Z</time>
      </trkpt>
      <trkpt lat="43.84778" lon="-0.50183">
        <ele>88</ele>
        <time>2019-02-11T17:34:33Z</time>
      </trkpt>
      <trkpt lat="43.84688" lon="-0.50192">
        <ele>88</ele>
        <time>2019-02-11T17:35:33Z</time>
      </trkpt>
      <trkpt lat="43.84532" lon="-0.50197">
        <ele>85</ele>
        <time>2019-02-11T17:36:33Z</time>
      </trkpt>
      <trkpt lat="43.84508" lon="-0.50188">
        <ele>85</ele>
        <time>2019-02-11T17:37:33Z</time>
      </trkpt>
      <trkpt lat="43.84407" lon="-0.50156">
        <ele>83</ele>
        <time>2019-02-11T17:38:33Z</time>
      </trkpt>
      <trkpt lat="43.84311" lon="-0.50152">
        <ele>81</ele>
        <time>2019-02-11T17:39:33Z</time>
      </trkpt>
      <trkpt lat="43.84167" lon="-0.50113">
        <ele>79</ele>
        <time>2019-02-11T17:40:33Z</time>
      </trkpt>
      <trkpt lat="43.83998" lon="-0.50064">
        <ele>76</ele>
        <time>2019-02-11T17:41:33Z</time>
      </trkpt>
      <trkpt lat="43.83959" lon="-0.50073">
        <ele>76</ele>
        <time>2019-02-11T17:42:33Z</time>
      </trkpt>
      <trkpt lat="43.83872" lon="-0.50116">
        <ele>75</ele>
        <time>2019-02-11T17:43:33Z</time>
      </trkpt>
      <trkpt lat="43.83809" lon="-0.50107">
        <ele>76</ele>
        <time>2019-02-11T17:44:33Z</time>
      </trkpt>
      <trkpt lat="43.83716" lon="-0.50079">
        <ele>78</ele>
        <time>2019-02-11T17:45:33Z</time>
      </trkpt>
      <trkpt lat="43.83407" lon="-0.49965">
        <ele>76</ele>
        <time>2019-02-11T17:46:33Z</time>
      </trkpt>
      <trkpt lat="43.83366" lon="-0.49963">
        <ele>74</ele>
        <time>2019-02-11T17:47:33Z</time>
      </trkpt>
      <trkpt lat="43.83314" lon="-0.49977">
        <ele>72</ele>
        <time>2019-02-11T17:48:33Z</time>
      </trkpt>
      <trkpt lat="43.83213" lon="-0.50028">
        <ele>71</ele>
        <time>2019-02-11T17:49:33Z</time>
      </trkpt>
      <trkpt lat="43.83144" lon="-0.5004">
        <ele>72</ele>
        <time>2019-02-11T17:50:33Z</time>
      </trkpt>
      <trkpt lat="43.8309" lon="-0.50064">
        <ele>71</ele>
        <time>2019-02-11T17:51:33Z</time>
      </trkpt>
      <trkpt lat="43.82988" lon="-0.50113">
        <ele>70</ele>
        <time>2019-02-11T17:52:33Z</time>
      </trkpt>
      <trkpt lat="43.82922" lon="-0.50136">
        <ele>67</ele>
        <time>2019-02-11T17:53:33Z</time>
      </trkpt>
      <trkpt lat="43.82909" lon="-0.50158">
        <ele>67</ele>
        <time>2019-02-11T17:54:33Z</time>
      </trkpt>
      <trkpt lat="43.82904" lon="-0.50203">
        <ele>67</ele>
        <time>2019-02-11T17:55:33Z</time>
      </trkpt>
      <trkpt lat="43.82913" lon="-0.50273">
        <ele>68</ele>
        <time>2019-02-11T17:56:33Z</time>
      </trkpt>
      <trkpt lat="43.82898" lon="-0.50306">
        <ele>68</ele>
        <time>2019-02-11T17:57:33Z</time>
      </trkpt>
      <trkpt lat="43.82762" lon="-0.50284">
        <ele>66</ele>
        <time>2019-02-11T17:58:33Z</time>
      </trkpt>
      <trkpt lat="43.82565" lon="-0.50264">
        <ele>71</ele>
        <time>2019-02-11T17:59:33Z</time>
      </trkpt>
      <trkpt lat="43.82509" lon="-0.50244">
        <ele>69</ele>
        <time>2019-02-11T18:00:33Z</time>
      </trkpt>
      <trkpt lat="43.82436" lon="-0.50174">
        <ele>73</ele>
        <time>2019-02-11T18:01:33Z</time>
      </trkpt>
      <trkpt lat="43.82405" lon="-0.50154">
        <ele>75</ele>
        <time>2019-02-11T18:02:33Z</time>
      </trkpt>
      <trkpt lat="43.82354" lon="-0.50154">
        <ele>76</ele>
        <time>2019-02-11T18:03:33Z</time>
      </trkpt>
      <trkpt lat="43.8232" lon="-0.50143">
        <ele>76</ele>
        <time>2019-02-11T18:04:33Z</time>
      </trkpt>
      <trkpt lat="43.82289" lon="-0.50111">
        <ele>77</ele>
        <time>2019-02-11T18:05:33Z</time>
      </trkpt>
      <trkpt lat="43.82258" lon="-0.50107">
        <ele>77</ele>
        <time>2019-02-11T18:06:33Z</time>
      </trkpt>
      <trkpt lat="43.82128" lon="-0.50127">
        <ele>76</ele>
        <time>2019-02-11T18:07:33Z</time>
      </trkpt>
      <trkpt lat="43.82096" lon="-0.50147">
        <ele>76</ele>
        <time>2019-02-11T18:08:33Z</time>
      </trkpt>
      <trkpt lat="43.82063" lon="-0.50183">
        <ele>75</ele>
        <time>2019-02-11T18:09:33Z</time>
      </trkpt>
      <trkpt lat="43.82014" lon="-0.50208">
        <ele>74</ele>
        <time>2019-02-11T18:10:33Z</time>
      </trkpt>
      <trkpt lat="43.81791" lon="-0.50334">
        <ele>74</ele>
        <time>2019-02-11T18:11:33Z</time>
      </trkpt>
      <trkpt lat="43.81757" lon="-0.5034">
        <ele>74</ele>
        <time>2019-02-11T18:12:33Z</time>
      </trkpt>
      <trkpt lat="43.81734" lon="-0.50322">
        <ele>74</ele>
        <time>2019-02-11T18:13:33Z</time>
      </trkpt>
      <trkpt lat="43.81666" lon="-0.50221">
        <ele>74</ele>
        <time>2019-02-11T18:14:33Z</time>
      </trkpt>
      <trkpt lat="43.8154" lon="-0.50071">
        <ele>71</ele>
        <time>2019-02-11T18:15:33Z</time>
      </trkpt>
      <trkpt lat="43.81488" lon="-0.50044">
        <ele>70</ele>
        <time>2019-02-11T18:16:33Z</time>
      </trkpt>
      <trkpt lat="43.81424" lon="-0.5001">
        <ele>67</ele>
        <time>2019-02-11T18:17:33Z</time>
      </trkpt>
      <trkpt lat="43.81183" lon="-0.50091">
        <ele>72</ele>
        <time>2019-02-11T18:18:33Z</time>
      </trkpt>
      <trkpt lat="43.81147" lon="-0.50093">
        <ele>71</ele>
        <time>2019-02-11T18:19:33Z</time>
      </trkpt>
      <trkpt lat="43.81123" lon="-0.50132">
        <ele>71</ele>
        <time>2019-02-11T18:20:33Z</time>
      </trkpt>
      <trkpt lat="43.81113" lon="-0.50205">
        <ele>72</ele>
        <time>2019-02-11T18:21:33Z</time>
      </trkpt>
      <trkpt lat="43.81087" lon="-0.50282">
        <ele>75</ele>
        <time>2019-02-11T18:22:33Z</time>
      </trkpt>
      <trkpt lat="43.81062" lon="-0.50356">
        <ele>74</ele>
        <time>2019-02-11T18:23:33Z</time>
      </trkpt>
      <trkpt lat="43.81018" lon="-0.50434">
        <ele>73</ele>
        <time>2019-02-11T18:24:33Z</time>
      </trkpt>
      <trkpt lat="43.80869" lon="-0.50457">
        <ele>68</ele>
        <time>2019-02-11T18:25:33Z</time>
      </trkpt>
      <trkpt lat="43.80799" lon="-0.50473">
        <ele>69</ele>
        <time>2019-02-11T18:26:33Z</time>
      </trkpt>
      <trkpt lat="43.80667" lon="-0.50542">
        <ele>69</ele>
        <time>2019-02-11T18:27:33Z</time>
      </trkpt>
      <trkpt lat="43.80626" lon="-0.50587">
        <ele>70</ele>
        <time>2019-02-11T18:28:33Z</time>
      </trkpt>
      <trkpt lat="43.80542" lon="-0.50638">
        <ele>72</ele>
        <time>2019-02-11T18:29:33Z</time>
      </trkpt>
      <trkpt lat="43.80481" lon="-0.50627">
        <ele>73</ele>
        <time>2019-02-11T18:30:33Z</time>
      </trkpt>
      <trkpt lat="43.80449" lon="-0.50699">
        <ele>74</ele>
        <time>2019-02-11T18:31:33Z</time>
      </trkpt>
      <trkpt lat="43.80408" lon="-0.50816">
        <ele>72</ele>
        <time>2019-02-11T18:32:33Z</time>
      </trkpt>
      <trkpt lat="43.8044" lon="-0.50872">
        <ele>72</ele>
        <time>2019-02-11T18:33:33Z</time>
      </trkpt>
      <trkpt lat="43.80425" lon="-0.50955">
        <ele>71</ele>
        <time>2019-02-11T18:34:33Z</time>
      </trkpt>
      <trkpt lat="43.80364" lon="-0.51192">
        <ele>72</ele>
        <time>2019-02-11T18:35:33Z</time>
      </trkpt>
      <trkpt lat="43.80269" lon="-0.51264">
        <ele>73</ele>
        <time>2019-02-11T18:36:33Z</time>
      </trkpt>
      <trkpt lat="43.80218" lon="-0.51314">
        <ele>72</ele>
        <time>2019-02-11T18:37:33Z</time>
      </trkpt>
      <trkpt lat="43.80183" lon="-0.5137">
        <ele>71</ele>
        <time>2019-02-11T18:38:33Z</time>
      </trkpt>
      <trkpt lat="43.80147" lon="-0.51422">
        <ele>71</ele>
        <time>2019-02-11T18:39:33Z</time>
      </trkpt>
      <trkpt lat="43.80072" lon="-0.515">
        <ele>73</ele>
        <time>2019-02-11T18:40:33Z</time>
      </trkpt>
      <trkpt lat="43.80084" lon="-0.51567">
        <ele>70</ele>
        <time>2019-02-11T18:41:33Z</time>
      </trkpt>
      <trkpt lat="43.80057" lon="-0.51735">
        <ele>71</ele>
        <time>2019-02-11T18:42:33Z</time>
      </trkpt>
      <trkpt lat="43.79965" lon="-0.52054">
        <ele>68</ele>
        <time>2019-02-11T18:43:33Z</time>
      </trkpt>
      <trkpt lat="43.79882" lon="-0.52442">
        <ele>74</ele>
        <time>2019-02-11T18:44:33Z</time>
      </trkpt>
      <trkpt lat="43.7974" lon="-0.52855">
        <ele>71</ele>
        <time>2019-02-11T18:45:33Z</time>
      </trkpt>
      <trkpt lat="43.79632" lon="-0.53153">
        <ele>71</ele>
        <time>2019-02-11T18:46:33Z</time>
      </trkpt>
      <trkpt lat="43.79515" lon="-0.53568">
        <ele>70</ele>
        <time>2019-02-11T18:47:33Z</time>
      </trkpt>
      <trkpt lat="43.79435" lon="-0.54111">
        <ele>65</ele>
        <time>2019-02-11T18:48:33Z</time>
      </trkpt>
      <trkpt lat="43.79066" lon="-0.54246">
        <ele>56</ele>
        <time>2019-02-11T18:49:33Z</time>
      </trkpt>
      <trkpt lat="43.78937" lon="-0.54266">
        <ele>51</ele>
        <time>2019-02-11T18:50:33Z</time>
      </trkpt>
      <trkpt lat="43.78921" lon="-0.5427">
        <ele>50</ele>
        <time>2019-02-11T18:51:33Z</time>
      </trkpt>
      <trkpt lat="43.78858" lon="-0.54376">
        <ele>48</ele>
        <time>2019-02-11T18:52:33Z</time>
      </trkpt>
      <trkpt lat="43.78982" lon="-0.54613">
        <ele>54</ele>
        <time>2019-02-11T18:53:33Z</time>
      </trkpt>
      <trkpt lat="43.78982" lon="-0.54645">
        <ele>54</ele>
        <time>2019-02-11T18:54:33Z</time>
      </trkpt>
      <trkpt lat="43.78831" lon="-0.54918">
        <ele>51</ele>
        <time>2019-02-11T18:55:33Z</time>
      </trkpt>
      <trkpt lat="43.78616" lon="-0.55255">
        <ele>47</ele>
        <time>2019-02-11T18:56:33Z</time>
      </trkpt>
      <trkpt lat="43.78573" lon="-0.55309">
        <ele>47</ele>
        <time>2019-02-11T18:57:33Z</time>
      </trkpt>
      <trkpt lat="43.7829" lon="-0.55573">
        <ele>47</ele>
        <time>2019-02-11T18:58:33Z</time>
      </trkpt>
      <trkpt lat="43.77937" lon="-0.55632">
        <ele>43</ele>
        <time>2019-02-11T18:59:33Z</time>
      </trkpt>
      <trkpt lat="43.77795" lon="-0.55654">
        <ele>42</ele>
        <time>2019-02-11T19:00:33Z</time>
      </trkpt>
      <trkpt lat="43.77795" lon="-0.55605">
        <ele>41</ele>
        <time>2019-02-11T19:01:33Z</time>
      </trkpt>
      <trkpt lat="43.77785" lon="-0.55434">
        <ele>40</ele>
        <time>2019-02-11T19:02:33Z</time>
      </trkpt>
      <trkpt lat="43.77703" lon="-0.55401">
        <ele>39</ele>
        <time>2019-02-11T19:03:33Z</time>
      </trkpt>
      <trkpt lat="43.77722" lon="-0.55287">
        <ele>42</ele>
        <time>2019-02-11T19:04:33Z</time>
      </trkpt>
      <trkpt lat="43.77707" lon="-0.55295">
        <ele>41</ele>
        <time>2019-02-11T19:05:33Z</time>
      </trkpt>
      <trkpt lat="43.77651" lon="-0.5534">
        <ele>41</ele>
        <time>2019-02-11T19:06:33Z</time>
      </trkpt>
      <trkpt lat="43.77629" lon="-0.55311">
        <ele>40</ele>
        <time>2019-02-11T19:07:33Z</time>
      </trkpt>
      <trkpt lat="43.77423" lon="-0.55105">
        <ele>41</ele>
        <time>2019-02-11T19:08:33Z</time>
      </trkpt>
      <trkpt lat="43.77384" lon="-0.55168">
        <ele>41</ele>
        <time>2019-02-11T19:09:33Z</time>
      </trkpt>
      <trkpt lat="43.76916" lon="-0.55576">
        <ele>40</ele>
        <time>2019-02-11T19:10:33Z</time>
      </trkpt>
      <trkpt lat="43.76866" lon="-0.55645">
        <ele>41</ele>
        <time>2019-02-11T19:11:33Z</time>
      </trkpt>
      <trkpt lat="43.76822" lon="-0.55751">
        <ele>41</ele>
        <time>2019-02-11T19:12:33Z</time>
      </trkpt>
      <trkpt lat="43.76814" lon="-0.55834">
        <ele>40</ele>
        <time>2019-02-11T19:13:33Z</time>
      </trkpt>
      <trkpt lat="43.76833" lon="-0.56101">
        <ele>39</ele>
        <time>2019-02-11T19:14:33Z</time>
      </trkpt>
      <trkpt lat="43.76813" lon="-0.56709">
        <ele>41</ele>
        <time>2019-02-11T19:15:33Z</time>
      </trkpt>
      <trkpt lat="43.76813" lon="-0.56973">
        <ele>39</ele>
        <time>2019-02-11T19:16:33Z</time>
      </trkpt>
      <trkpt lat="43.76697" lon="-0.5696">
        <ele>36</ele>
        <time>2019-02-11T19:17:33Z</time>
      </trkpt>
      <trkpt lat="43.76654" lon="-0.56957">
        <ele>36</ele>
        <time>2019-02-11T19:18:33Z</time>
      </trkpt>
      <trkpt lat="43.76388" lon="-0.56926">
        <ele>45</ele>
        <time>2019-02-11T19:19:33Z</time>
      </trkpt>
      <trkpt lat="43.76342" lon="-0.5695">
        <ele>51</ele>
        <time>2019-02-11T19:20:33Z</time>
      </trkpt>
      <trkpt lat="43.76316" lon="-0.57054">
        <ele>61</ele>
        <time>2019-02-11T19:21:33Z</time>
      </trkpt>
      <trkpt lat="43.76246" lon="-0.5711">
        <ele>83</ele>
        <time>2019-02-11T19:22:33Z</time>
      </trkpt>
      <trkpt lat="43.76233" lon="-0.57164">
        <ele>90</ele>
        <time>2019-02-11T19:23:33Z</time>
      </trkpt>
      <trkpt lat="43.76228" lon="-0.57182">
        <ele>92</ele>
        <time>2019-02-11T19:24:33Z</time>
      </trkpt>
      <trkpt lat="43.7618" lon="-0.57209">
        <ele>96</ele>
        <time>2019-02-11T19:25:33Z</time>
      </trkpt>
      <trkpt lat="43.76163" lon="-0.57243">
        <ele>97</ele>
        <time>2019-02-11T19:26:33Z</time>
      </trkpt>
      <trkpt lat="43.76142" lon="-0.57278">
        <ele>97</ele>
        <time>2019-02-11T19:27:33Z</time>
      </trkpt>
      <trkpt lat="43.76121" lon="-0.57321">
        <ele>98</ele>
        <time>2019-02-11T19:28:33Z</time>
      </trkpt>
      <trkpt lat="43.76074" lon="-0.57402">
        <ele>100</ele>
        <time>2019-02-11T19:29:33Z</time>
      </trkpt>
      <trkpt lat="43.76026" lon="-0.5744">
        <ele>103</ele>
        <time>2019-02-11T19:30:33Z</time>
      </trkpt>
      <trkpt lat="43.75992" lon="-0.57458">
        <ele>105</ele>
        <time>2019-02-11T19:31:33Z</time>
      </trkpt>
      <trkpt lat="43.75983" lon="-0.5745">
        <ele>105</ele>
        <time>2019-02-11T19:32:33Z</time>
      </trkpt>
      <trkpt lat="43.7598" lon="-0.5739">
        <ele>106</ele>
        <time>2019-02-11T19:33:33Z</time>
      </trkpt>
      <trkpt lat="43.75979" lon="-0.57375">
        <ele>106</ele>
        <time>2019-02-11T19:34:33Z</time>
      </trkpt>
      <trkpt lat="43.75957" lon="-0.57342">
        <ele>106</ele>
        <time>2019-02-11T19:35:33Z</time>
      </trkpt>
      <trkpt lat="43.75937" lon="-0.57298">
        <ele>107</ele>
        <time>2019-02-11T19:36:33Z</time>
      </trkpt>
      <trkpt lat="43.75927" lon="-0.57287">
        <ele>107</ele>
        <time>2019-02-11T19:37:33Z</time>
      </trkpt>
      <trkpt lat="43.75915" lon="-0.57262">
        <ele>108</ele>
        <time>2019-02-11T19:38:33Z</time>
      </trkpt>
      <trkpt lat="43.759" lon="-0.5723">
        <ele>108</ele>
        <time>2019-02-11T19:39:33Z</time>
      </trkpt>
      <trkpt lat="43.75874" lon="-0.57214">
        <ele>107</ele>
        <time>2019-02-11T19:40:33Z</time>
      </trkpt>
      <trkpt lat="43.7585" lon="-0.57207">
        <ele>108</ele>
        <time>2019-02-11T19:41:33Z</time>
      </trkpt>
      <trkpt lat="43.75795" lon="-0.57204">
        <ele>106</ele>
        <time>2019-02-11T19:42:33Z</time>
      </trkpt>
      <trkpt lat="43.75726" lon="-0.57195">
        <ele>105</ele>
        <time>2019-02-11T19:43:33Z</time>
      </trkpt>
      <trkpt lat="43.75636" lon="-0.57135">
        <ele>106</ele>
        <time>2019-02-11T19:44:33Z</time>
      </trkpt>
      <trkpt lat="43.756" lon="-0.57115">
        <ele>106</ele>
        <time>2019-02-11T19:45:33Z</time>
      </trkpt>
      <trkpt lat="43.75546" lon="-0.57056">
        <ele>105</ele>
        <time>2019-02-11T19:46:33Z</time>
      </trkpt>
      <trkpt lat="43.75531" lon="-0.57065">
        <ele>105</ele>
        <time>2019-02-11T19:47:33Z</time>
      </trkpt>
      <trkpt lat="43.75482" lon="-0.57068">
        <ele>105</ele>
        <time>2019-02-11T19:48:33Z</time>
      </trkpt>
      <trkpt lat="43.754" lon="-0.57065">
        <ele>103</ele>
        <time>2019-02-11T19:49:33Z</time>
      </trkpt>
      <trkpt lat="43.75376" lon="-0.57086">
        <ele>102</ele>
        <time>2019-02-11T19:50:33Z</time>
      </trkpt>
      <trkpt lat="43.75381" lon="-0.5726">
        <ele>98</ele>
        <time>2019-02-11T19:51:33Z</time>
      </trkpt>
      <trkpt lat="43.75386" lon="-0.57399">
        <ele>99</ele>
        <time>2019-02-11T19:52:33Z</time>
      </trkpt>
      <trkpt lat="43.75338" lon="-0.57427">
        <ele>98</ele>
        <time>2019-02-11T19:53:33Z</time>
      </trkpt>
      <trkpt lat="43.75294" lon="-0.57458">
        <ele>98</ele>
        <time>2019-02-11T19:54:33Z</time>
      </trkpt>
      <trkpt lat="43.75264" lon="-0.57534">
        <ele>97</ele>
        <time>2019-02-11T19:55:33Z</time>
      </trkpt>
      <trkpt lat="43.75222" lon="-0.57644">
        <ele>96</ele>
        <time>2019-02-11T19:56:33Z</time>
      </trkpt>
      <trkpt lat="43.75179" lon="-0.57716">
        <ele>97</ele>
        <time>2019-02-11T19:57:33Z</time>
      </trkpt>
      <trkpt lat="43.75161" lon="-0.57756">
        <ele>98</ele>
        <time>2019-02-11T19:58:33Z</time>
      </trkpt>
      <trkpt lat="43.75129" lon="-0.57824">
        <ele>96</ele>
        <time>2019-02-11T19:59:33Z</time>
      </trkpt>
      <trkpt lat="43.75094" lon="-0.57969">
        <ele>95</ele>
        <time>2019-02-11T20:00:33Z</time>
      </trkpt>
      <trkpt lat="43.75084" lon="-0.58059">
        <ele>94</ele>
        <time>2019-02-11T20:01:33Z</time>
      </trkpt>
      <trkpt lat="43.75088" lon="-0.58185">
        <ele>92</ele>
        <time>2019-02-11T20:02:33Z</time>
      </trkpt>
      <trkpt lat="43.75094" lon="-0.58212">
        <ele>92</ele>
        <time>2019-02-11T20:03:33Z</time>
      </trkpt>
      <trkpt lat="43.75154" lon="-0.58265">
        <ele>93</ele>
        <time>2019-02-11T20:04:33Z</time>
      </trkpt>
      <trkpt lat="43.75065" lon="-0.58339">
        <ele>83</ele>
        <time>2019-02-11T20:05:33Z</time>
      </trkpt>
      <trkpt lat="43.74983" lon="-0.58541">
        <ele>69</ele>
        <time>2019-02-11T20:06:33Z</time>
      </trkpt>
      <trkpt lat="43.7494" lon="-0.58579">
        <ele>67</ele>
        <time>2019-02-11T20:07:33Z</time>
      </trkpt>
      <trkpt lat="43.74789" lon="-0.58669">
        <ele>61</ele>
        <time>2019-02-11T20:08:33Z</time>
      </trkpt>
      <trkpt lat="43.74747" lon="-0.58672">
        <ele>60</ele>
        <time>2019-02-11T20:09:33Z</time>
      </trkpt>
      <trkpt lat="43.74728" lon="-0.5868">
        <ele>61</ele>
        <time>2019-02-11T20:10:33Z</time>
      </trkpt>
      <trkpt lat="43.7466" lon="-0.58764">
        <ele>62</ele>
        <time>2019-02-11T20:11:33Z</time>
      </trkpt>
      <trkpt lat="43.74611" lon="-0.58768">
        <ele>63</ele>
        <time>2019-02-11T20:12:33Z</time>
      </trkpt>
      <trkpt lat="43.74564" lon="-0.58759">
        <ele>64</ele>
        <time>2019-02-11T20:13:33Z</time>
      </trkpt>
      <trkpt lat="43.74527" lon="-0.58781">
        <ele>63</ele>
        <time>2019-02-11T20:14:33Z</time>
      </trkpt>
      <trkpt lat="43.74471" lon="-0.58865">
        <ele>60</ele>
        <time>2019-02-11T20:15:33Z</time>
      </trkpt>
      <trkpt lat="43.74455" lon="-0.58925">
        <ele>59</ele>
        <time>2019-02-11T20:16:33Z</time>
      </trkpt>
      <trkpt lat="43.74415" lon="-0.59089">
        <ele>50</ele>
        <time>2019-02-11T20:17:33Z</time>
      </trkpt>
      <trkpt lat="43.74388" lon="-0.59136">
        <ele>49</ele>
        <time>2019-02-11T20:18:33Z</time>
      </trkpt>
      <trkpt lat="43.7435" lon="-0.59252">
        <ele>47</ele>
        <time>2019-02-11T20:19:33Z</time>
      </trkpt>
      <trkpt lat="43.74488" lon="-0.59587">
        <ele>44</ele>
        <time>2019-02-11T20:20:33Z</time>
      </trkpt>
      <trkpt lat="43.74107" lon="-0.59865">
        <ele>41</ele>
        <time>2019-02-11T20:21:33Z</time>
      </trkpt>
      <trkpt lat="43.73832" lon="-0.60069">
        <ele>41</ele>
        <time>2019-02-11T20:22:33Z</time>
      </trkpt>
      <trkpt lat="43.73789" lon="-0.60134">
        <ele>51</ele>
        <time>2019-02-11T20:23:33Z</time>
      </trkpt>
      <trkpt lat="43.73792" lon="-0.60267">
        <ele>50</ele>
        <time>2019-02-11T20:24:33Z</time>
      </trkpt>
      <trkpt lat="43.73804" lon="-0.60415">
        <ele>45</ele>
        <time>2019-02-11T20:25:33Z</time>
      </trkpt>
      <trkpt lat="43.73849" lon="-0.60594">
        <ele>42</ele>
        <time>2019-02-11T20:26:33Z</time>
      </trkpt>
      <trkpt lat="43.738" lon="-0.60616">
        <ele>43</ele>
        <time>2019-02-11T20:27:33Z</time>
      </trkpt>
      <trkpt lat="43.73622" lon="-0.6058">
        <ele>45</ele>
        <time>2019-02-11T20:28:33Z</time>
      </trkpt>
      <trkpt lat="43.73534" lon="-0.60524">
        <ele>44</ele>
        <time>2019-02-11T20:29:33Z</time>
      </trkpt>
      <trkpt lat="43.73491" lon="-0.60488">
        <ele>44</ele>
        <time>2019-02-11T20:30:33Z</time>
      </trkpt>
      <trkpt lat="43.73459" lon="-0.60428">
        <ele>45</ele>
        <time>2019-02-11T20:31:33Z</time>
      </trkpt>
      <trkpt lat="43.73394" lon="-0.60374">
        <ele>44</ele>
        <time>2019-02-11T20:32:33Z</time>
      </trkpt>
      <trkpt lat="43.73389" lon="-0.60224">
        <ele>48</ele>
        <time>2019-02-11T20:33:33Z</time>
      </trkpt>
      <trkpt lat="43.73379" lon="-0.60219">
        <ele>48</ele>
        <time>2019-02-11T20:34:33Z</time>
      </trkpt>
      <trkpt lat="43.73126" lon="-0.60235">
        <ele>50</ele>
        <time>2019-02-11T20:35:33Z</time>
      </trkpt>
      <trkpt lat="43.73115" lon="-0.60251">
        <ele>49</ele>
        <time>2019-02-11T20:36:33Z</time>
      </trkpt>
      <trkpt lat="43.7308" lon="-0.60257">
        <ele>49</ele>
        <time>2019-02-11T20:37:33Z</time>
      </trkpt>
      <trkpt lat="43.73034" lon="-0.60235">
        <ele>48</ele>
        <time>2019-02-11T20:38:33Z</time>
      </trkpt>
      <trkpt lat="43.73003" lon="-0.60217">
        <ele>47</ele>
        <time>2019-02-11T20:39:33Z</time>
      </trkpt>
      <trkpt lat="43.72965" lon="-0.60226">
        <ele>47</ele>
        <time>2019-02-11T20:40:33Z</time>
      </trkpt>
      <trkpt lat="43.72899" lon="-0.60244">
        <ele>47</ele>
        <time>2019-02-11T20:41:33Z</time>
      </trkpt>
      <trkpt lat="43.72856" lon="-0.60246">
        <ele>50</ele>
        <time>2019-02-11T20:42:33Z</time>
      </trkpt>
      <trkpt lat="43.72861" lon="-0.6028">
        <ele>51</ele>
        <time>2019-02-11T20:43:33Z</time>
      </trkpt>
      <trkpt lat="43.72851" lon="-0.60291">
        <ele>52</ele>
        <time>2019-02-11T20:44:33Z</time>
      </trkpt>
      <trkpt lat="43.72834" lon="-0.60296">
        <ele>53</ele>
        <time>2019-02-11T20:45:33Z</time>
      </trkpt>
      <trkpt lat="43.72761" lon="-0.60286">
        <ele>67</ele>
        <time>2019-02-11T20:46:33Z</time>
      </trkpt>
      <trkpt lat="43.72732" lon="-0.60284">
        <ele>67</ele>
        <time>2019-02-11T20:47:33Z</time>
      </trkpt>
      <trkpt lat="43.72706" lon="-0.60269">
        <ele>62</ele>
        <time>2019-02-11T20:48:33Z</time>
      </trkpt>
      <trkpt lat="43.72621" lon="-0.60248">
        <ele>53</ele>
        <time>2019-02-11T20:49:33Z</time>
      </trkpt>
      <trkpt lat="43.72579" lon="-0.6024">
        <ele>50</ele>
        <time>2019-02-11T20:50:33Z</time>
      </trkpt>
      <trkpt lat="43.72485" lon="-0.60262">
        <ele>49</ele>
        <time>2019-02-11T20:51:33Z</time>
      </trkpt>
      <trkpt lat="43.72431" lon="-0.60271">
        <ele>50</ele>
        <time>2019-02-11T20:52:33Z</time>
      </trkpt>
      <trkpt lat="43.72363" lon="-0.60291">
        <ele>51</ele>
        <time>2019-02-11T20:53:33Z</time>
      </trkpt>
      <trkpt lat="43.72316" lon="-0.60302">
        <ele>53</ele>
        <time>2019-02-11T20:54:33Z</time>
      </trkpt>
      <trkpt lat="43.72296" lon="-0.60322">
        <ele>53</ele>
        <time>2019-02-11T20:55:33Z</time>
      </trkpt>
      <trkpt lat="43.72272" lon="-0.60354">
        <ele>54</ele>
        <time>2019-02-11T20:56:33Z</time>
      </trkpt>
      <trkpt lat="43.72234" lon="-0.60412">
        <ele>54</ele>
        <time>2019-02-11T20:57:33Z</time>
      </trkpt>
      <trkpt lat="43.72119" lon="-0.60522">
        <ele>51</ele>
        <time>2019-02-11T20:58:33Z</time>
      </trkpt>
      <trkpt lat="43.71989" lon="-0.60663">
        <ele>52</ele>
        <time>2019-02-11T20:59:33Z</time>
      </trkpt>
      <trkpt lat="43.71965" lon="-0.60695">
        <ele>52</ele>
        <time>2019-02-11T21:00:33Z</time>
      </trkpt>
      <trkpt lat="43.71878" lon="-0.60702">
        <ele>51</ele>
        <time>2019-02-11T21:01:33Z</time>
      </trkpt>
      <trkpt lat="43.71759" lon="-0.60664">
        <ele>51</ele>
        <time>2019-02-11T21:02:33Z</time>
      </trkpt>
      <trkpt lat="43.7171" lon="-0.60652">
        <ele>51</ele>
        <time>2019-02-11T21:03:33Z</time>
      </trkpt>
      <trkpt lat="43.7162" lon="-0.60661">
        <ele>53</ele>
        <time>2019-02-11T21:04:33Z</time>
      </trkpt>
      <trkpt lat="43.71517" lon="-0.60625">
        <ele>58</ele>
        <time>2019-02-11T21:05:33Z</time>
      </trkpt>
      <trkpt lat="43.7142" lon="-0.60569">
        <ele>59</ele>
        <time>2019-02-11T21:06:33Z</time>
      </trkpt>
      <trkpt lat="43.71275" lon="-0.60452">
        <ele>59</ele>
        <time>2019-02-11T21:07:33Z</time>
      </trkpt>
      <trkpt lat="43.71187" lon="-0.6039">
        <ele>59</ele>
        <time>2019-02-11T21:08:33Z</time>
      </trkpt>
      <trkpt lat="43.70992" lon="-0.6034">
        <ele>68</ele>
        <time>2019-02-11T21:09:33Z</time>
      </trkpt>
      <trkpt lat="43.70919" lon="-0.6036">
        <ele>72</ele>
        <time>2019-02-11T21:10:33Z</time>
      </trkpt>
      <trkpt lat="43.7078" lon="-0.60423">
        <ele>82</ele>
        <time>2019-02-11T21:11:33Z</time>
      </trkpt>
      <trkpt lat="43.70694" lon="-0.60468">
        <ele>86</ele>
        <time>2019-02-11T21:12:33Z</time>
      </trkpt>
      <trkpt lat="43.70545" lon="-0.60464">
        <ele>90</ele>
        <time>2019-02-11T21:13:33Z</time>
      </trkpt>
      <trkpt lat="43.70409" lon="-0.60433">
        <ele>93</ele>
        <time>2019-02-11T21:14:33Z</time>
      </trkpt>
      <trkpt lat="43.70394" lon="-0.60305">
        <ele>91</ele>
        <time>2019-02-11T21:15:33Z</time>
      </trkpt>
      <trkpt lat="43.70337" lon="-0.60145">
        <ele>91</ele>
        <time>2019-02-11T21:16:33Z</time>
      </trkpt>
      <trkpt lat="43.70279" lon="-0.59943">
        <ele>85</ele>
        <time>2019-02-11T21:17:33Z</time>
      </trkpt>
      <trkpt lat="43.70274" lon="-0.5989">
        <ele>82</ele>
        <time>2019-02-11T21:18:33Z</time>
      </trkpt>
      <trkpt lat="43.70262" lon="-0.59807">
        <ele>75</ele>
        <time>2019-02-11T21:19:33Z</time>
      </trkpt>
      <trkpt lat="43.70208" lon="-0.59804">
        <ele>73</ele>
        <time>2019-02-11T21:20:33Z</time>
      </trkpt>
      <trkpt lat="43.70174" lon="-0.59791">
        <ele>70</ele>
        <time>2019-02-11T21:21:33Z</time>
      </trkpt>
      <trkpt lat="43.70114" lon="-0.59742">
        <ele>66</ele>
        <time>2019-02-11T21:22:33Z</time>
      </trkpt>
      <trkpt lat="43.70096" lon="-0.59741">
        <ele>66</ele>
        <time>2019-02-11T21:23:33Z</time>
      </trkpt>
      <trkpt lat="43.7003" lon="-0.5978">
        <ele>65</ele>
        <time>2019-02-11T21:24:33Z</time>
      </trkpt>
      <trkpt lat="43.69955" lon="-0.5982">
        <ele>64</ele>
        <time>2019-02-11T21:25:33Z</time>
      </trkpt>
      <trkpt lat="43.69928" lon="-0.59813">
        <ele>64</ele>
        <time>2019-02-11T21:26:33Z</time>
      </trkpt>
      <trkpt lat="43.69885" lon="-0.59676">
        <ele>59</ele>
        <time>2019-02-11T21:27:33Z</time>
      </trkpt>
      <trkpt lat="43.69861" lon="-0.59587">
        <ele>64</ele>
        <time>2019-02-11T21:28:33Z</time>
      </trkpt>
      <trkpt lat="43.69801" lon="-0.59549">
        <ele>70</ele>
        <time>2019-02-11T21:29:33Z</time>
      </trkpt>
      <trkpt lat="43.6974" lon="-0.59522">
        <ele>76</ele>
        <time>2019-02-11T21:30:33Z</time>
      </trkpt>
      <trkpt lat="43.69707" lon="-0.59515">
        <ele>79</ele>
        <time>2019-02-11T21:31:33Z</time>
      </trkpt>
      <trkpt lat="43.69664" lon="-0.5953">
        <ele>82</ele>
        <time>2019-02-11T21:32:33Z</time>
      </trkpt>
      <trkpt lat="43.69598" lon="-0.59492">
        <ele>86</ele>
        <time>2019-02-11T21:33:33Z</time>
      </trkpt>
      <trkpt lat="43.69547" lon="-0.59465">
        <ele>87</ele>
        <time>2019-02-11T21:34:33Z</time>
      </trkpt>
      <trkpt lat="43.69506" lon="-0.5947">
        <ele>89</ele>
        <time>2019-02-11T21:35:33Z</time>
      </trkpt>
      <trkpt lat="43.69458" lon="-0.59483">
        <ele>88</ele>
        <time>2019-02-11T21:36:33Z</time>
      </trkpt>
      <trkpt lat="43.6941" lon="-0.59483">
        <ele>88</ele>
        <time>2019-02-11T21:37:33Z</time>
      </trkpt>
      <trkpt lat="43.69385" lon="-0.59488">
        <ele>87</ele>
        <time>2019-02-11T21:38:33Z</time>
      </trkpt>
      <trkpt lat="43.69334" lon="-0.59504">
        <ele>84</ele>
        <time>2019-02-11T21:39:33Z</time>
      </trkpt>
      <trkpt lat="43.69309" lon="-0.59506">
        <ele>84</ele>
        <time>2019-02-11T21:40:33Z</time>
      </trkpt>
      <trkpt lat="43.6929" lon="-0.59542">
        <ele>83</ele>
        <time>2019-02-11T21:41:33Z</time>
      </trkpt>
      <trkpt lat="43.69253" lon="-0.59549">
        <ele>82</ele>
        <time>2019-02-11T21:42:33Z</time>
      </trkpt>
      <trkpt lat="43.69169" lon="-0.596">
        <ele>76</ele>
        <time>2019-02-11T21:43:33Z</time>
      </trkpt>
      <trkpt lat="43.69042" lon="-0.5969">
        <ele>70</ele>
        <time>2019-02-11T21:44:33Z</time>
      </trkpt>
      <trkpt lat="43.68955" lon="-0.59712">
        <ele>71</ele>
        <time>2019-02-11T21:45:33Z</time>
      </trkpt>
      <trkpt lat="43.68841" lon="-0.59766">
        <ele>75</ele>
        <time>2019-02-11T21:46:33Z</time>
      </trkpt>
      <trkpt lat="43.68791" lon="-0.59786">
        <ele>78</ele>
        <time>2019-02-11T21:47:33Z</time>
      </trkpt>
      <trkpt lat="43.68737" lon="-0.59777">
        <ele>83</ele>
        <time>2019-02-11T21:48:33Z</time>
      </trkpt>
      <trkpt lat="43.68687" lon="-0.59777">
        <ele>88</ele>
        <time>2019-02-11T21:49:33Z</time>
      </trkpt>
      <trkpt lat="43.6863" lon="-0.59802">
        <ele>95</ele>
        <time>2019-02-11T21:50:33Z</time>
      </trkpt>
      <trkpt lat="43.68568" lon="-0.59847">
        <ele>107</ele>
        <time>2019-02-11T21:51:33Z</time>
      </trkpt>
      <trkpt lat="43.68521" lon="-0.59896">
        <ele>112</ele>
        <time>2019-02-11T21:52:33Z</time>
      </trkpt>
      <trkpt lat="43.68489" lon="-0.59905">
        <ele>115</ele>
        <time>2019-02-11T21:53:33Z</time>
      </trkpt>
      <trkpt lat="43.68439" lon="-0.59876">
        <ele>120</ele>
        <time>2019-02-11T21:54:33Z</time>
      </trkpt>
      <trkpt lat="43.68387" lon="-0.59818">
        <ele>124</ele>
        <time>2019-02-11T21:55:33Z</time>
      </trkpt>
      <trkpt lat="43.68313" lon="-0.59742">
        <ele>126</ele>
        <time>2019-02-11T21:56:33Z</time>
      </trkpt>
      <trkpt lat="43.68246" lon="-0.59665">
        <ele>124</ele>
        <time>2019-02-11T21:57:33Z</time>
      </trkpt>
      <trkpt lat="43.6816" lon="-0.59589">
        <ele>122</ele>
        <time>2019-02-11T21:58:33Z</time>
      </trkpt>
      <trkpt lat="43.67985" lon="-0.59416">
        <ele>127</ele>
        <time>2019-02-11T21:59:33Z</time>
      </trkpt>
      <trkpt lat="43.67913" lon="-0.59304">
        <ele>127</ele>
        <time>2019-02-11T22:00:33Z</time>
      </trkpt>
      <trkpt lat="43.67881" lon="-0.59235">
        <ele>127</ele>
        <time>2019-02-11T22:01:33Z</time>
      </trkpt>
      <trkpt lat="43.67832" lon="-0.59197">
        <ele>129</ele>
        <time>2019-02-11T22:02:33Z</time>
      </trkpt>
      <trkpt lat="43.67767" lon="-0.59158">
        <ele>131</ele>
        <time>2019-02-11T22:03:33Z</time>
      </trkpt>
      <trkpt lat="43.67725" lon="-0.59122">
        <ele>131</ele>
        <time>2019-02-11T22:04:33Z</time>
      </trkpt>
      <trkpt lat="43.67688" lon="-0.59062">
        <ele>129</ele>
        <time>2019-02-11T22:05:33Z</time>
      </trkpt>
      <trkpt lat="43.67631" lon="-0.58963">
        <ele>127</ele>
        <time>2019-02-11T22:06:33Z</time>
      </trkpt>
      <trkpt lat="43.67592" lon="-0.58875">
        <ele>128</ele>
        <time>2019-02-11T22:07:33Z</time>
      </trkpt>
      <trkpt lat="43.67549" lon="-0.58831">
        <ele>129</ele>
        <time>2019-02-11T22:08:33Z</time>
      </trkpt>
      <trkpt lat="43.67458" lon="-0.58768">
        <ele>126</ele>
        <time>2019-02-11T22:09:33Z</time>
      </trkpt>
      <trkpt lat="43.67407" lon="-0.58768">
        <ele>125</ele>
        <time>2019-02-11T22:10:33Z</time>
      </trkpt>
      <trkpt lat="43.67353" lon="-0.58815">
        <ele>124</ele>
        <time>2019-02-11T22:11:33Z</time>
      </trkpt>
      <trkpt lat="43.67305" lon="-0.58847">
        <ele>123</ele>
        <time>2019-02-11T22:12:33Z</time>
      </trkpt>
      <trkpt lat="43.67246" lon="-0.58867">
        <ele>120</ele>
        <time>2019-02-11T22:13:33Z</time>
      </trkpt>
      <trkpt lat="43.67154" lon="-0.58884">
        <ele>123</ele>
        <time>2019-02-11T22:14:33Z</time>
      </trkpt>
      <trkpt lat="43.67072" lon="-0.58891">
        <ele>126</ele>
        <time>2019-02-11T22:15:33Z</time>
      </trkpt>
      <trkpt lat="43.66906" lon="-0.58898">
        <ele>129</ele>
        <time>2019-02-11T22:16:33Z</time>
      </trkpt>
      <trkpt lat="43.66867" lon="-0.58889">
        <ele>130</ele>
        <time>2019-02-11T22:17:33Z</time>
      </trkpt>
      <trkpt lat="43.66797" lon="-0.58856">
        <ele>131</ele>
        <time>2019-02-11T22:18:33Z</time>
      </trkpt>
      <trkpt lat="43.66783" lon="-0.58849">
        <ele>130</ele>
        <time>2019-02-11T22:19:33Z</time>
      </trkpt>
      <trkpt lat="43.66748" lon="-0.58889">
        <ele>131</ele>
        <time>2019-02-11T22:20:33Z</time>
      </trkpt>
      <trkpt lat="43.66718" lon="-0.58896">
        <ele>130</ele>
        <time>2019-02-11T22:21:33Z</time>
      </trkpt>
      <trkpt lat="43.66706" lon="-0.58918">
        <ele>130</ele>
        <time>2019-02-11T22:22:33Z</time>
      </trkpt>
      <trkpt lat="43.6668" lon="-0.58916">
        <ele>129</ele>
        <time>2019-02-11T22:23:33Z</time>
      </trkpt>
      <trkpt lat="43.66643" lon="-0.58864">
        <ele>127</ele>
        <time>2019-02-11T22:24:33Z</time>
      </trkpt>
      <trkpt lat="43.66585" lon="-0.58883">
        <ele>127</ele>
        <time>2019-02-11T22:25:33Z</time>
      </trkpt>
      <trkpt lat="43.66238" lon="-0.59006">
        <ele>128</ele>
        <time>2019-02-11T22:26:33Z</time>
      </trkpt>
      <trkpt lat="43.66089" lon="-0.59052">
        <ele>129</ele>
        <time>2019-02-11T22:27:33Z</time>
      </trkpt>
      <trkpt lat="43.65868" lon="-0.59126">
        <ele>117</ele>
        <time>2019-02-11T22:28:33Z</time>
      </trkpt>
      <trkpt lat="43.65772" lon="-0.59159">
        <ele>112</ele>
        <time>2019-02-11T22:29:33Z</time>
      </trkpt>
      <trkpt lat="43.65766" lon="-0.59174">
        <ele>112</ele>
        <time>2019-02-11T22:30:33Z</time>
      </trkpt>
      <trkpt lat="43.65756" lon="-0.59182">
        <ele>111</ele>
        <time>2019-02-11T22:31:33Z</time>
      </trkpt>
      <trkpt lat="43.65732" lon="-0.59222">
        <ele>110</ele>
        <time>2019-02-11T22:32:33Z</time>
      </trkpt>
      <trkpt lat="43.65715" lon="-0.59289">
        <ele>108</ele>
        <time>2019-02-11T22:33:33Z</time>
      </trkpt>
      <trkpt lat="43.65711" lon="-0.59321">
        <ele>107</ele>
        <time>2019-02-11T22:34:33Z</time>
      </trkpt>
      <trkpt lat="43.65662" lon="-0.59399">
        <ele>105</ele>
        <time>2019-02-11T22:35:33Z</time>
      </trkpt>
    </trkseg>
  </trk>
</gpx>